createdAt,value
2022-08-30T00:00:36.003Z,101789.38
2022-08-30T00:03:45.518Z,101785.91
2022-08-30T00:06:51.831Z,101783.38
2022-08-30T00:09:58.074Z,101791.19
2022-08-30T00:13:07.455Z,101781.88
2022-08-30T00:16:15.555Z,101788.03
2022-08-30T00:19:22.018Z,101773.53
2022-08-30T00:22:28.336Z,101785.50
2022-08-30T00:25:35.271Z,101766.59
2022-08-30T00:28:42.831Z,101768.16
2022-08-30T00:31:49.482Z,101776.88
2022-08-30T00:34:56.667Z,101769.06
2022-08-30T00:38:03.110Z,101769.03
2022-08-30T00:41:10.383Z,101770.78
2022-08-30T00:44:18.192Z,101776.94
2022-08-30T00:47:24.887Z,101774.44
2022-08-30T00:50:38.253Z,101773.69
2022-08-30T00:53:49.631Z,101771.16
2022-08-30T00:56:56.606Z,101770.34
2022-08-30T01:00:08.124Z,101772.09
2022-08-30T01:03:14.624Z,101774.63
2022-08-30T01:06:21.970Z,101779.09
2022-08-30T01:09:29.745Z,101766.31
2022-08-30T01:12:36.106Z,101768.94
2022-08-30T01:15:45.714Z,101776.75
2022-08-30T01:18:55.359Z,101779.41
2022-08-30T01:22:07.210Z,101783.81
2022-08-30T01:25:17.951Z,101777.88
2022-08-30T01:28:27.565Z,101777.09
2022-08-30T01:31:37.098Z,101783.91
2022-08-30T01:34:43.562Z,101778.69
2022-08-30T01:37:50.356Z,101779.63
2022-08-30T01:41:01.494Z,101770.31
2022-08-30T01:44:11.984Z,101769.50
2022-08-30T01:47:19.662Z,101773.75
2022-08-30T01:50:26.218Z,101771.28
2022-08-30T01:53:32.804Z,101773.06
2022-08-30T01:56:41.087Z,101773.19
2022-08-30T01:59:50.088Z,101776.59
2022-08-30T02:02:58.138Z,101775.00
2022-08-30T02:06:05.640Z,101778.38
2022-08-30T02:09:13.461Z,101773.38
2022-08-30T02:12:21.692Z,101769.03
2022-08-30T02:15:28.532Z,101756.06
2022-08-30T02:18:35.791Z,101743.88
2022-08-30T02:21:42.179Z,101745.50
2022-08-30T02:24:48.483Z,101748.97
2022-08-30T02:27:56.475Z,101749.72
2022-08-30T02:31:03.499Z,101748.72
2022-08-30T02:34:09.948Z,101747.84
2022-08-30T02:37:16.785Z,101743.44
2022-08-30T02:40:23.629Z,101748.47
2022-08-30T02:43:31.331Z,101740.78
2022-08-30T02:46:38.046Z,101735.50
2022-08-30T02:49:44.707Z,101738.91
2022-08-30T02:52:51.066Z,101743.22
2022-08-30T02:55:58.806Z,101738.03
2022-08-30T02:59:07.768Z,101744.88
2022-08-30T03:02:15.734Z,101749.16
2022-08-30T03:05:22.636Z,101743.25
2022-08-30T03:08:29.252Z,101748.38
2022-08-30T03:11:35.936Z,101739.84
2022-08-30T03:14:44.368Z,101740.75
2022-08-30T03:17:51.067Z,101730.44
2022-08-30T03:20:57.885Z,101727.66
2022-08-30T03:24:05.050Z,101730.19
2022-08-30T03:27:11.787Z,101730.97
2022-08-30T03:30:21.345Z,101724.78
2022-08-30T03:33:29.078Z,101728.94
2022-08-30T03:36:35.490Z,101724.59
2022-08-30T03:39:42.084Z,101719.25
2022-08-30T03:42:49.753Z,101719.91
2022-08-30T03:45:57.970Z,101728.34
2022-08-30T03:49:04.494Z,101727.38
2022-08-30T03:52:11.415Z,101728.09
2022-08-30T03:55:18.029Z,101720.25
2022-08-30T03:58:25.020Z,101721.91
2022-08-30T04:01:33.053Z,101718.47
2022-08-30T04:04:39.635Z,101717.53
2022-08-30T04:07:46.135Z,101720.00
2022-08-30T04:10:53.478Z,101712.22
2022-08-30T04:14:00.070Z,101714.66
2022-08-30T04:17:07.885Z,101712.84
2022-08-30T04:20:14.069Z,101708.34
2022-08-30T04:23:20.782Z,101712.53
2022-08-30T04:26:29.364Z,101706.38
2022-08-30T04:29:36.468Z,101703.78
2022-08-30T04:32:44.723Z,101703.00
2022-08-30T04:35:51.718Z,101703.91
2022-08-30T04:39:00.719Z,101701.41
2022-08-30T04:42:09.556Z,101698.91
2022-08-30T04:45:17.646Z,101697.25
2022-08-30T04:48:25.614Z,101702.34
2022-08-30T04:51:32.572Z,101703.09
2022-08-30T04:54:39.242Z,101703.16
2022-08-30T04:57:45.710Z,101719.50
2022-08-30T05:00:52.297Z,101713.34
2022-08-30T05:04:00.963Z,101711.69
2022-08-30T05:07:07.555Z,101717.72
2022-08-30T05:10:14.195Z,101710.88
2022-08-30T05:13:35.263Z,101713.50
2022-08-30T05:16:43.708Z,101716.94
2022-08-30T05:19:51.578Z,101719.53
2022-08-30T05:22:58.263Z,101719.53
2022-08-30T05:26:07.869Z,101720.53
2022-08-30T05:29:14.052Z,101713.75
2022-08-30T05:32:20.566Z,101715.50
2022-08-30T05:35:28.788Z,101712.06
2022-08-30T05:38:35.407Z,101716.41
2022-08-30T05:41:42.144Z,101722.50
2022-08-30T05:44:53.146Z,101721.00
2022-08-30T05:47:59.451Z,101725.38
2022-08-30T05:51:12.591Z,101727.19
2022-08-30T05:54:19.497Z,101730.66
2022-08-30T05:57:26.816Z,101727.34
2022-08-30T06:00:33.384Z,101725.66
2022-08-30T06:03:39.785Z,101733.56
2022-08-30T06:06:47.462Z,101729.47
2022-08-30T06:09:54.219Z,101732.28
2022-08-30T06:13:00.439Z,101734.22
2022-08-30T06:16:07.413Z,101733.56
2022-08-30T06:19:15.187Z,101745.00
2022-08-30T06:22:23.299Z,101746.97
2022-08-30T06:25:41.306Z,101746.28
2022-08-30T06:28:49.245Z,101754.91
2022-08-30T06:31:57.541Z,101752.53
2022-08-30T06:35:04.710Z,101750.91
2022-08-30T06:38:12.303Z,101748.44
2022-08-30T06:41:23.086Z,101744.34
2022-08-30T06:44:29.295Z,101750.47
2022-08-30T06:47:36.976Z,101750.69
2022-08-30T06:50:44.866Z,101755.94
2022-08-30T06:53:53.654Z,101752.63
2022-08-30T06:57:00.347Z,101753.69
2022-08-30T07:00:09.719Z,101741.06
2022-08-30T07:03:16.492Z,101739.59
2022-08-30T07:06:24.091Z,101745.91
2022-08-30T07:12:39.355Z,101743.94
2022-08-30T07:15:46.788Z,101740.56
2022-08-30T07:18:54.913Z,101738.19
2022-08-30T07:22:01.307Z,101741.75
2022-08-30T07:25:09.669Z,101740.84
2022-08-30T07:28:16.289Z,101744.28
2022-08-30T07:31:23.670Z,101736.75
2022-08-30T07:34:30.174Z,101732.69
2022-08-30T07:37:36.603Z,101725.97
2022-08-30T07:40:44.290Z,101720.97
2022-08-30T07:43:51.356Z,101721.84
2022-08-30T07:46:57.852Z,101720.34
2022-08-30T07:50:05.469Z,101716.16
2022-08-30T07:53:13.403Z,101723.22
2022-08-30T07:56:21.976Z,101728.69
2022-08-30T07:59:30.869Z,101719.22
2022-08-30T08:02:41.879Z,101728.72
2022-08-30T08:05:48.678Z,101704.88
2022-08-30T08:08:56.429Z,101691.22
2022-08-30T08:12:06.507Z,101683.47
2022-08-30T08:15:13.283Z,101672.22
2022-08-30T08:18:19.726Z,101642.50
2022-08-30T08:21:27.329Z,101630.94
2022-08-30T08:24:33.941Z,101614.09
2022-08-30T08:27:41.835Z,101613.00
2022-08-30T08:30:50.170Z,101602.94
2022-08-30T08:33:58.681Z,101605.44
2022-08-30T08:37:05.486Z,101588.97
2022-08-30T08:40:18.356Z,101586.47
2022-08-30T08:43:27.686Z,101582.84
2022-08-30T08:46:45.464Z,101572.97
2022-08-30T08:49:57.415Z,101547.84
2022-08-30T08:53:45.579Z,101531.50
2022-08-30T08:56:53.632Z,101524.50
2022-08-30T09:00:01.895Z,101525.84
2022-08-30T09:03:14.502Z,101531.41
2022-08-30T09:06:47.094Z,101515.59
2022-08-30T09:09:53.831Z,101497.56
2022-08-30T09:13:02.170Z,101497.78
2022-08-30T09:16:13.877Z,101487.88
2022-08-30T09:19:41.688Z,101457.66
2022-08-30T09:22:48.197Z,101454.97
2022-08-30T09:25:57.467Z,101484.53
2022-08-30T09:29:06.053Z,101521.69
2022-08-30T09:32:30.534Z,101578.25
2022-08-30T09:35:40.594Z,101600.44
2022-08-30T09:38:47.299Z,101603.06
2022-08-30T09:41:54.317Z,101548.03
2022-08-30T09:45:11.636Z,101480.84
2022-08-30T09:48:37.727Z,101413.41
2022-08-30T09:51:53.654Z,101428.81
2022-08-30T09:55:25.028Z,101450.84
2022-08-30T09:59:00.761Z,101462.09
2022-08-30T10:02:31.523Z,101429.69
2022-08-30T10:05:54.106Z,101483.59
2022-08-30T10:09:15.415Z,101460.53
2022-08-30T10:12:31.271Z,101439.81
2022-08-30T10:15:42.315Z,101421.00
2022-08-30T10:19:02.758Z,101380.88
2022-08-30T10:22:18.117Z,101380.91
2022-08-30T10:25:30.710Z,101375.66
2022-08-30T10:28:43.535Z,101382.44
2022-08-30T10:31:57.977Z,101378.78
2022-08-30T10:35:10.107Z,101374.38
2022-08-30T10:38:27.246Z,101379.41
2022-08-30T10:41:39.239Z,101389.16
2022-08-30T10:44:50.071Z,101353.66
2022-08-30T10:48:04.846Z,101354.84
2022-08-30T10:51:16.466Z,101337.56
2022-08-30T10:54:33.814Z,101337.50
2022-08-30T10:57:42.947Z,101294.84
2022-08-30T11:01:06.723Z,101290.81
2022-08-30T11:05:09.275Z,101315.03
2022-08-30T11:08:35.478Z,101302.13
2022-08-30T11:12:07.999Z,101307.50
2022-08-30T11:15:21.457Z,101345.41
2022-08-30T11:18:32.842Z,101299.06
2022-08-30T11:21:42.251Z,101275.28
2022-08-30T11:29:08.374Z,101303.50
2022-08-30T11:32:59.963Z,101303.50
2022-08-30T11:36:06.870Z,101311.19
2022-08-30T11:39:54.064Z,101376.63
2022-08-30T11:43:55.626Z,101368.00
2022-08-30T11:47:40.093Z,101326.44
2022-08-30T11:50:54.910Z,101282.19
2022-08-30T11:54:12.522Z,101292.63
2022-08-30T11:57:29.037Z,101290.81
2022-08-30T12:00:39.646Z,101247.00
2022-08-30T12:03:56.743Z,101247.00
2022-08-30T12:07:06.446Z,101235.56
2022-08-30T12:10:24.525Z,101243.81
2022-08-30T12:13:53.732Z,101260.97
2022-08-30T12:17:19.380Z,101272.84
2022-08-30T12:20:41.378Z,101215.56
2022-08-30T12:23:56.848Z,101181.56
2022-08-30T12:27:23.356Z,101204.03
2022-08-30T12:30:30.819Z,101234.13
2022-08-30T12:33:45.180Z,101198.72
2022-08-30T12:36:59.099Z,101214.03
2022-08-30T12:40:10.691Z,101159.47
2022-08-30T12:43:26.652Z,101128.72
2022-08-30T12:46:33.490Z,101113.81
2022-08-30T12:49:42.763Z,101157.09
2022-08-30T12:53:02.232Z,101144.13
2022-08-30T12:56:13.449Z,101103.97
2022-08-30T12:59:56.839Z,101108.84
2022-08-30T13:03:30.768Z,101098.72
2022-08-30T13:06:43.757Z,101111.00
2022-08-30T13:09:51.623Z,101158.50
2022-08-30T13:13:04.904Z,101121.78
2022-08-30T13:16:26.395Z,101131.03
2022-08-30T13:19:38.812Z,101199.31
2022-08-30T13:23:04.704Z,101121.41
2022-08-30T13:26:12.572Z,101128.56
2022-08-30T13:29:23.693Z,101146.19
2022-08-30T13:32:30.266Z,101127.66
2022-08-30T13:35:36.606Z,101159.59
2022-08-30T13:38:44.097Z,101161.38
2022-08-30T13:41:52.222Z,101132.41
2022-08-30T13:44:58.659Z,101136.03
2022-08-30T13:48:06.767Z,101153.41
2022-08-30T13:51:13.230Z,101221.28
2022-08-30T13:54:21.561Z,101267.41
2022-08-30T14:00:59.277Z,101319.56
2022-08-30T14:04:13.546Z,101302.44
2022-08-30T14:07:21.806Z,101285.34
2022-08-30T14:10:31.686Z,101250.25
2022-08-30T14:14:14.773Z,101264.63
2022-08-30T14:17:06.566Z,101307.38
2022-08-30T14:20:16.799Z,101307.19
2022-08-30T14:23:24.399Z,101308.72
2022-08-30T14:26:34.491Z,101311.66
2022-08-30T14:29:42.395Z,101340.00
2022-08-30T14:32:50.359Z,101373.78
2022-08-30T14:35:56.899Z,101349.78
2022-08-30T14:39:06.278Z,101379.81
2022-08-30T14:42:18.963Z,101366.50
2022-08-30T14:45:26.644Z,101368.50
2022-08-30T14:48:33.031Z,101384.22
2022-08-30T14:51:39.801Z,101350.94
2022-08-30T14:54:46.328Z,101337.16
2022-08-30T14:57:52.593Z,101324.47
2022-08-30T15:01:00.642Z,101304.34
2022-08-30T15:04:08.669Z,101341.00
2022-08-30T15:07:16.518Z,101342.63
2022-08-30T15:10:24.227Z,101337.88
2022-08-30T15:13:31.119Z,101320.25
2022-08-30T15:16:40.600Z,101351.75
2022-08-30T15:19:47.227Z,101344.09
2022-08-30T15:22:54.368Z,101368.38
2022-08-30T15:26:01.415Z,101433.25
2022-08-30T15:29:09.028Z,101456.44
2022-08-30T15:32:16.947Z,101473.28
2022-08-30T15:35:24.938Z,101486.13
2022-08-30T15:38:31.313Z,101494.34
2022-08-30T15:41:39.966Z,101490.31
2022-08-30T15:44:52.583Z,101486.28
2022-08-30T15:48:02.230Z,101489.88
2022-08-30T15:51:08.566Z,101479.66
2022-08-30T15:54:18.985Z,101498.59
2022-08-30T15:57:25.569Z,101502.38
2022-08-30T16:00:31.979Z,101502.38
2022-08-30T16:03:41.447Z,101505.28
2022-08-30T16:06:48.334Z,101507.09
2022-08-30T16:09:54.797Z,101500.16
2022-08-30T16:13:01.696Z,101503.81
2022-08-30T16:16:10.874Z,101508.13
2022-08-30T16:19:18.855Z,101507.34
2022-08-30T16:22:26.455Z,101512.59
2022-08-30T16:25:40.917Z,101507.53
2022-08-30T16:28:48.387Z,101489.13
2022-08-30T16:31:55.664Z,101494.50
2022-08-30T16:35:03.690Z,101500.00
2022-08-30T16:38:10.281Z,101493.16
2022-08-30T16:41:21.643Z,101497.81
2022-08-30T16:44:29.715Z,101499.72
2022-08-30T16:47:36.730Z,101495.38
2022-08-30T16:50:46.786Z,101494.53
2022-08-30T16:53:55.013Z,101499.78
2022-08-30T16:57:01.492Z,101501.59
2022-08-30T17:00:12.994Z,101485.84
2022-08-30T17:03:21.085Z,101478.72
2022-08-30T17:06:28.923Z,101474.97
2022-08-30T17:09:36.099Z,101473.09
2022-08-30T17:12:43.502Z,101457.59
2022-08-30T17:15:52.023Z,101464.56
2022-08-30T17:19:00.909Z,101460.97
2022-08-30T17:22:09.044Z,101461.06
2022-08-30T17:25:15.728Z,101462.78
2022-08-30T17:28:22.579Z,101461.16
2022-08-30T17:31:30.890Z,101450.78
2022-08-30T17:34:38.310Z,101466.53
2022-08-30T17:37:47.532Z,101469.28
2022-08-30T17:41:04.071Z,101473.66
2022-08-30T17:44:12.867Z,101482.50
2022-08-30T17:47:19.741Z,101497.50
2022-08-30T17:50:26.116Z,101535.13
2022-08-30T17:53:36.340Z,101596.94
2022-08-30T17:56:44.379Z,101620.50
2022-08-30T17:59:50.902Z,101636.31
2022-08-30T18:02:57.816Z,101657.22
2022-08-30T18:06:04.493Z,101673.78
2022-08-30T18:09:13.287Z,101689.50
2022-08-30T18:12:19.756Z,101700.81
2022-08-30T18:15:26.307Z,101705.09
2022-08-30T18:18:33.208Z,101711.16
2022-08-30T18:21:41.307Z,101711.16
2022-08-30T18:24:49.233Z,101705.06
2022-08-30T18:27:57.170Z,101711.91
2022-08-30T18:31:06.207Z,101705.84
2022-08-30T18:34:15.679Z,101712.72
2022-08-30T18:37:22.228Z,101712.66
2022-08-30T18:40:33.119Z,101709.19
2022-08-30T18:43:41.018Z,101717.78
2022-08-30T18:46:56.256Z,101724.66
2022-08-30T18:50:03.607Z,101721.09
2022-08-30T18:53:10.279Z,101721.91
2022-08-30T18:56:18.631Z,101727.88
2022-08-30T18:59:35.307Z,101721.78
2022-08-30T19:02:43.660Z,101732.03
2022-08-30T19:05:50.215Z,101736.28
2022-08-30T19:08:56.966Z,101736.28
2022-08-30T19:12:09.470Z,101743.09
2022-08-30T19:15:18.888Z,101751.75
2022-08-30T19:18:25.380Z,101755.13
2022-08-30T19:21:32.203Z,101757.63
2022-08-30T19:24:40.451Z,101774.00
2022-08-30T19:27:48.438Z,101776.53
2022-08-30T19:30:57.375Z,101783.47
2022-08-30T19:34:03.845Z,101779.03
2022-08-30T19:37:14.696Z,101786.75
2022-08-30T19:40:25.645Z,101791.84
2022-08-30T19:43:33.462Z,101784.94
2022-08-30T19:46:40.226Z,101783.25
2022-08-30T19:49:47.026Z,101778.88
2022-08-30T19:52:54.949Z,101781.38
2022-08-30T19:56:01.395Z,101793.38
2022-08-30T19:59:10.751Z,101786.47
2022-08-30T20:02:17.417Z,101789.78
2022-08-30T20:05:23.873Z,101796.59
2022-08-30T20:08:30.183Z,101795.66
2022-08-30T20:11:38.861Z,101798.25
2022-08-30T20:14:49.030Z,101798.13
2022-08-30T20:21:22.492Z,101801.53
2022-08-30T20:24:28.834Z,101799.78
2022-08-30T20:27:36.526Z,101799.00
2022-08-30T20:30:44.672Z,101803.34
2022-08-30T20:33:50.882Z,101802.63
2022-08-30T20:36:58.863Z,101799.19
2022-08-30T20:40:08.812Z,101794.03
2022-08-30T20:43:18.847Z,101805.25
2022-08-30T20:46:28.580Z,101804.38
2022-08-30T20:49:38.753Z,101804.28
2022-08-30T20:52:46.211Z,101807.72
2022-08-30T20:55:52.801Z,101815.41
2022-08-30T20:59:01.912Z,101818.81
2022-08-30T21:02:11.470Z,101817.84
2022-08-30T21:05:19.867Z,101823.81
2022-08-30T21:08:26.922Z,101826.31
2022-08-30T21:11:34.319Z,101830.56
2022-08-30T21:14:40.782Z,101833.88
2022-08-30T21:17:48.957Z,101833.81
2022-08-30T21:20:55.335Z,101831.97
2022-08-30T21:24:06.773Z,101832.69
2022-08-30T21:27:13.195Z,101827.38
2022-08-30T21:30:19.964Z,101826.44
2022-08-30T21:33:27.704Z,101835.69
2022-08-30T21:36:46.421Z,101836.44
2022-08-30T21:39:54.885Z,101832.84
2022-08-30T21:43:05.658Z,101837.91
2022-08-30T21:46:13.342Z,101838.50
2022-08-30T21:49:24.055Z,101838.47
2022-08-30T21:52:30.588Z,101832.41
2022-08-30T21:55:37.137Z,101833.22
2022-08-30T21:58:44.298Z,101833.94
2022-08-30T22:01:51.149Z,101835.69
2022-08-30T22:04:58.843Z,101843.28
2022-08-30T22:08:05.368Z,101838.13
2022-08-30T22:11:15.279Z,101841.44
2022-08-30T22:14:22.663Z,101843.06
2022-08-30T22:17:29.066Z,101842.09
2022-08-30T22:20:36.695Z,101840.38
2022-08-30T22:23:45.040Z,101830.00
2022-08-30T22:26:51.497Z,101834.22
2022-08-30T22:29:58.077Z,101832.44
2022-08-30T22:33:04.402Z,101837.44
2022-08-30T22:36:15.896Z,101840.91
2022-08-30T22:39:22.607Z,101837.38
2022-08-30T22:42:29.399Z,101839.88
2022-08-30T22:45:35.913Z,101836.41
2022-08-30T22:48:45.444Z,101847.56
2022-08-30T22:51:53.088Z,101850.00
2022-08-30T22:54:59.879Z,101849.91
2022-08-30T22:58:06.048Z,101850.72
2022-08-30T23:01:21.965Z,101852.34
2022-08-30T23:04:28.568Z,101847.19
2022-08-30T23:07:36.839Z,101847.28
2022-08-30T23:10:44.388Z,101851.44
2022-08-30T23:13:51.263Z,101855.56
2022-08-30T23:16:57.887Z,101852.03
2022-08-30T23:20:05.922Z,101855.44
2022-08-30T23:23:31.647Z,101850.09
2022-08-30T23:26:56.123Z,101861.22
2022-08-30T23:30:20.450Z,101850.09
2022-08-30T23:33:44.641Z,101856.06
2022-08-30T23:37:08.599Z,101856.91
2022-08-30T23:40:34.395Z,101852.56
2022-08-30T23:43:57.903Z,101854.38
2022-08-30T23:47:21.690Z,101854.38
2022-08-30T23:50:45.620Z,101863.03
2022-08-30T23:54:09.138Z,101846.66
2022-08-30T23:57:34.005Z,101848.41
